sensor_id;sensor_type;location;lat;lon;timestamp;P1;durP1;ratioP1;P2;durP2;ratioP2
73132;SDS011;61320;52.008;4.530;2023-02-15T00:01:20;67.36;;;65.93;;
73132;SDS011;61320;52.008;4.530;2023-02-15T00:03:47;67.58;;;65.45;;
73132;SDS011;61320;52.008;4.530;2023-02-15T00:06:13;67.50;;;65.54;;
73132;SDS011;61320;52.008;4.530;2023-02-15T00:08:39;68.82;;;67.06;;
73132;SDS011;61320;52.008;4.530;2023-02-15T00:13:30;68.53;;;66.75;;
73132;SDS011;61320;52.008;4.530;2023-02-15T00:16:03;70.64;;;68.22;;
73132;SDS011;61320;52.008;4.530;2023-02-15T00:18:33;70.43;;;68.34;;
73132;SDS011;61320;52.008;4.530;2023-02-15T00:21:02;68.94;;;67.11;;
73132;SDS011;61320;52.008;4.530;2023-02-15T00:23:32;69.63;;;67.73;;
73132;SDS011;61320;52.008;4.530;2023-02-15T00:26:08;69.68;;;67.71;;
73132;SDS011;61320;52.008;4.530;2023-02-15T00:28:35;69.66;;;67.42;;
73132;SDS011;61320;52.008;4.530;2023-02-15T00:31:02;69.42;;;67.74;;
73132;SDS011;61320;52.008;4.530;2023-02-15T00:33:31;70.20;;;68.40;;
73132;SDS011;61320;52.008;4.530;2023-02-15T00:35:57;68.28;;;66.51;;
73132;SDS011;61320;52.008;4.530;2023-02-15T00:38:25;66.87;;;65.52;;
73132;SDS011;61320;52.008;4.530;2023-02-15T00:40:53;68.41;;;66.65;;
73132;SDS011;61320;52.008;4.530;2023-02-15T00:43:20;68.45;;;66.38;;
73132;SDS011;61320;52.008;4.530;2023-02-15T00:45:45;68.41;;;66.63;;
73132;SDS011;61320;52.008;4.530;2023-02-15T00:48:11;69.78;;;68.05;;
73132;SDS011;61320;52.008;4.530;2023-02-15T00:50:37;68.13;;;66.52;;
73132;SDS011;61320;52.008;4.530;2023-02-15T00:53:03;68.52;;;66.86;;
73132;SDS011;61320;52.008;4.530;2023-02-15T00:55:28;67.87;;;66.21;;
73132;SDS011;61320;52.008;4.530;2023-02-15T00:57:54;68.25;;;66.17;;
73132;SDS011;61320;52.008;4.530;2023-02-15T01:00:19;66.34;;;64.82;;
73132;SDS011;61320;52.008;4.530;2023-02-15T01:02:44;66.48;;;64.97;;
73132;SDS011;61320;52.008;4.530;2023-02-15T01:05:10;66.84;;;65.10;;
73132;SDS011;61320;52.008;4.530;2023-02-15T01:07:35;66.17;;;64.81;;
73132;SDS011;61320;52.008;4.530;2023-02-15T01:10:01;66.32;;;64.67;;
73132;SDS011;61320;52.008;4.530;2023-02-15T01:12:26;66.04;;;64.36;;
73132;SDS011;61320;52.008;4.530;2023-02-15T01:14:52;65.31;;;63.60;;
73132;SDS011;61320;52.008;4.530;2023-02-15T01:17:17;65.16;;;63.53;;
73132;SDS011;61320;52.008;4.530;2023-02-15T01:19:43;67.07;;;65.04;;
73132;SDS011;61320;52.008;4.530;2023-02-15T01:22:08;64.04;;;62.44;;
73132;SDS011;61320;52.008;4.530;2023-02-15T01:24:34;63.97;;;62.66;;
73132;SDS011;61320;52.008;4.530;2023-02-15T01:26:59;63.06;;;61.22;;
73132;SDS011;61320;52.008;4.530;2023-02-15T01:29:25;62.87;;;61.11;;
73132;SDS011;61320;52.008;4.530;2023-02-15T01:31:50;62.72;;;61.02;;
73132;SDS011;61320;52.008;4.530;2023-02-15T01:34:15;63.54;;;62.42;;
73132;SDS011;61320;52.008;4.530;2023-02-15T01:36:41;63.33;;;61.91;;
73132;SDS011;61320;52.008;4.530;2023-02-15T01:39:06;64.69;;;63.61;;
73132;SDS011;61320;52.008;4.530;2023-02-15T01:41:32;65.22;;;63.48;;
73132;SDS011;61320;52.008;4.530;2023-02-15T01:43:59;63.69;;;62.09;;
73132;SDS011;61320;52.008;4.530;2023-02-15T01:46:36;63.61;;;62.41;;
73132;SDS011;61320;52.008;4.530;2023-02-15T01:49:11;63.28;;;62.05;;
73132;SDS011;61320;52.008;4.530;2023-02-15T01:51:42;63.54;;;61.94;;
73132;SDS011;61320;52.008;4.530;2023-02-15T01:54:20;64.26;;;62.71;;
73132;SDS011;61320;52.008;4.530;2023-02-15T01:56:51;63.71;;;62.19;;
73132;SDS011;61320;52.008;4.530;2023-02-15T01:59:21;63.77;;;62.07;;
73132;SDS011;61320;52.008;4.530;2023-02-15T02:01:49;62.41;;;61.11;;
73132;SDS011;61320;52.008;4.530;2023-02-15T02:04:23;62.40;;;61.02;;
73132;SDS011;61320;52.008;4.530;2023-02-15T02:06:58;61.54;;;60.40;;
73132;SDS011;61320;52.008;4.530;2023-02-15T02:09:25;62.24;;;60.81;;
73132;SDS011;61320;52.008;4.530;2023-02-15T02:11:51;61.96;;;60.19;;
73132;SDS011;61320;52.008;4.530;2023-02-15T02:14:19;61.90;;;60.11;;
73132;SDS011;61320;52.008;4.530;2023-02-15T02:36:06;61.06;;;59.90;;
73132;SDS011;61320;52.008;4.530;2023-02-15T02:41:30;61.90;;;60.42;;
73132;SDS011;61320;52.008;4.530;2023-02-15T02:44:13;61.41;;;60.06;;
73132;SDS011;61320;52.008;4.530;2023-02-15T02:46:53;60.76;;;59.45;;
73132;SDS011;61320;52.008;4.530;2023-02-15T02:49:43;59.45;;;58.39;;
73132;SDS011;61320;52.008;4.530;2023-02-15T02:57:53;59.16;;;57.68;;
73132;SDS011;61320;52.008;4.530;2023-02-15T03:00:24;58.72;;;57.61;;
73132;SDS011;61320;52.008;4.530;2023-02-15T03:03:02;56.57;;;55.51;;
73132;SDS011;61320;52.008;4.530;2023-02-15T03:05:34;56.42;;;55.84;;
73132;SDS011;61320;52.008;4.530;2023-02-15T03:08:06;56.04;;;55.27;;
73132;SDS011;61320;52.008;4.530;2023-02-15T03:10:35;55.98;;;55.21;;
73132;SDS011;61320;52.008;4.530;2023-02-15T03:13:04;56.86;;;55.94;;
73132;SDS011;61320;52.008;4.530;2023-02-15T03:15:31;53.80;;;53.18;;
73132;SDS011;61320;52.008;4.530;2023-02-15T03:18:22;54.55;;;53.76;;
73132;SDS011;61320;52.008;4.530;2023-02-15T03:20:53;54.35;;;53.59;;
73132;SDS011;61320;52.008;4.530;2023-02-15T03:23:21;54.33;;;53.38;;
73132;SDS011;61320;52.008;4.530;2023-02-15T03:25:58;54.01;;;53.26;;
73132;SDS011;61320;52.008;4.530;2023-02-15T03:28:33;54.84;;;53.78;;
73132;SDS011;61320;52.008;4.530;2023-02-15T03:31:06;53.89;;;53.05;;
73132;SDS011;61320;52.008;4.530;2023-02-15T03:33:38;54.81;;;54.03;;
73132;SDS011;61320;52.008;4.530;2023-02-15T03:36:18;55.12;;;54.13;;
73132;SDS011;61320;52.008;4.530;2023-02-15T03:38:53;53.35;;;52.55;;
73132;SDS011;61320;52.008;4.530;2023-02-15T03:41:29;53.79;;;52.75;;
73132;SDS011;61320;52.008;4.530;2023-02-15T03:44:06;53.83;;;53.21;;
73132;SDS011;61320;52.008;4.530;2023-02-15T03:46:41;54.25;;;53.46;;
73132;SDS011;61320;52.008;4.530;2023-02-15T03:49:24;53.72;;;52.43;;
73132;SDS011;61320;52.008;4.530;2023-02-15T03:52:10;53.85;;;52.76;;
73132;SDS011;61320;52.008;4.530;2023-02-15T03:54:40;52.96;;;52.24;;
73132;SDS011;61320;52.008;4.530;2023-02-15T03:57:22;52.58;;;52.13;;
73132;SDS011;61320;52.008;4.530;2023-02-15T04:05:37;53.56;;;52.41;;
73132;SDS011;61320;52.008;4.530;2023-02-15T04:08:03;52.79;;;51.77;;
73132;SDS011;61320;52.008;4.530;2023-02-15T04:10:29;53.18;;;51.99;;
73132;SDS011;61320;52.008;4.530;2023-02-15T04:13:13;51.44;;;50.82;;
73132;SDS011;61320;52.008;4.530;2023-02-15T04:15:38;51.24;;;50.71;;
73132;SDS011;61320;52.008;4.530;2023-02-15T04:18:22;52.05;;;51.31;;
73132;SDS011;61320;52.008;4.530;2023-02-15T04:21:06;51.33;;;50.54;;
73132;SDS011;61320;52.008;4.530;2023-02-15T04:23:50;52.04;;;51.03;;
73132;SDS011;61320;52.008;4.530;2023-02-15T04:26:34;52.76;;;51.92;;
73132;SDS011;61320;52.008;4.530;2023-02-15T04:29:00;52.10;;;51.13;;
73132;SDS011;61320;52.008;4.530;2023-02-15T04:31:25;50.54;;;49.55;;
73132;SDS011;61320;52.008;4.530;2023-02-15T04:33:51;51.99;;;51.19;;
73132;SDS011;61320;52.008;4.530;2023-02-15T04:36:16;53.84;;;52.74;;
73132;SDS011;61320;52.008;4.530;2023-02-15T04:38:42;53.19;;;52.28;;
73132;SDS011;61320;52.008;4.530;2023-02-15T04:41:07;54.81;;;53.79;;
73132;SDS011;61320;52.008;4.530;2023-02-15T04:43:33;55.24;;;53.96;;
73132;SDS011;61320;52.008;4.530;2023-02-15T04:45:59;54.57;;;53.36;;
73132;SDS011;61320;52.008;4.530;2023-02-15T04:48:24;55.09;;;54.09;;
73132;SDS011;61320;52.008;4.530;2023-02-15T04:50:50;52.78;;;51.98;;
73132;SDS011;61320;52.008;4.530;2023-02-15T04:53:15;54.66;;;53.77;;
73132;SDS011;61320;52.008;4.530;2023-02-15T04:55:42;53.22;;;52.60;;
73132;SDS011;61320;52.008;4.530;2023-02-15T04:58:07;53.50;;;52.95;;
73132;SDS011;61320;52.008;4.530;2023-02-15T05:00:33;52.24;;;51.68;;
73132;SDS011;61320;52.008;4.530;2023-02-15T05:02:58;54.30;;;53.38;;
73132;SDS011;61320;52.008;4.530;2023-02-15T05:05:24;54.07;;;53.40;;
73132;SDS011;61320;52.008;4.530;2023-02-15T05:07:49;54.69;;;53.92;;
73132;SDS011;61320;52.008;4.530;2023-02-15T05:10:15;54.79;;;54.13;;
73132;SDS011;61320;52.008;4.530;2023-02-15T05:12:40;55.58;;;54.89;;
73132;SDS011;61320;52.008;4.530;2023-02-15T05:15:06;54.80;;;54.14;;
73132;SDS011;61320;52.008;4.530;2023-02-15T05:17:31;55.21;;;54.38;;
73132;SDS011;61320;52.008;4.530;2023-02-15T05:19:57;53.11;;;52.34;;
73132;SDS011;61320;52.008;4.530;2023-02-15T05:22:22;52.60;;;52.12;;
73132;SDS011;61320;52.008;4.530;2023-02-15T05:24:48;54.22;;;53.83;;
73132;SDS011;61320;52.008;4.530;2023-02-15T05:27:31;55.72;;;54.84;;
73132;SDS011;61320;52.008;4.530;2023-02-15T05:30:16;53.13;;;52.32;;
73132;SDS011;61320;52.008;4.530;2023-02-15T05:32:41;53.79;;;52.96;;
73132;SDS011;61320;52.008;4.530;2023-02-15T05:35:07;54.24;;;53.19;;
73132;SDS011;61320;52.008;4.530;2023-02-15T05:37:32;51.78;;;50.62;;
73132;SDS011;61320;52.008;4.530;2023-02-15T05:39:58;51.00;;;50.61;;
73132;SDS011;61320;52.008;4.530;2023-02-15T05:42:24;52.92;;;52.32;;
73132;SDS011;61320;52.008;4.530;2023-02-15T05:44:49;53.55;;;52.64;;
73132;SDS011;61320;52.008;4.530;2023-02-15T05:47:14;53.96;;;52.83;;
73132;SDS011;61320;52.008;4.530;2023-02-15T05:49:40;53.46;;;52.68;;
73132;SDS011;61320;52.008;4.530;2023-02-15T05:52:05;55.03;;;53.98;;
73132;SDS011;61320;52.008;4.530;2023-02-15T05:54:31;54.97;;;53.99;;
73132;SDS011;61320;52.008;4.530;2023-02-15T05:56:56;53.18;;;52.34;;
73132;SDS011;61320;52.008;4.530;2023-02-15T05:59:22;52.52;;;51.94;;
73132;SDS011;61320;52.008;4.530;2023-02-15T06:01:48;52.17;;;51.52;;
73132;SDS011;61320;52.008;4.530;2023-02-15T06:04:13;52.37;;;51.68;;
73132;SDS011;61320;52.008;4.530;2023-02-15T06:06:38;53.40;;;52.51;;
73132;SDS011;61320;52.008;4.530;2023-02-15T06:09:04;53.33;;;52.69;;
73132;SDS011;61320;52.008;4.530;2023-02-15T06:11:29;54.80;;;53.83;;
73132;SDS011;61320;52.008;4.530;2023-02-15T06:13:55;52.60;;;52.07;;
73132;SDS011;61320;52.008;4.530;2023-02-15T06:16:21;52.01;;;51.35;;
73132;SDS011;61320;52.008;4.530;2023-02-15T06:18:47;55.27;;;54.14;;
73132;SDS011;61320;52.008;4.530;2023-02-15T06:21:12;55.11;;;54.54;;
73132;SDS011;61320;52.008;4.530;2023-02-15T06:23:38;53.35;;;52.69;;
73132;SDS011;61320;52.008;4.530;2023-02-15T06:26:03;55.68;;;54.29;;
73132;SDS011;61320;52.008;4.530;2023-02-15T06:28:29;54.52;;;53.65;;
73132;SDS011;61320;52.008;4.530;2023-02-15T06:30:54;54.72;;;53.91;;
73132;SDS011;61320;52.008;4.530;2023-02-15T06:33:20;53.80;;;53.06;;
73132;SDS011;61320;52.008;4.530;2023-02-15T06:35:46;54.05;;;53.12;;
73132;SDS011;61320;52.008;4.530;2023-02-15T06:38:12;54.10;;;53.37;;
73132;SDS011;61320;52.008;4.530;2023-02-15T06:40:37;54.44;;;54.11;;
73132;SDS011;61320;52.008;4.530;2023-02-15T06:43:03;55.58;;;54.49;;
73132;SDS011;61320;52.008;4.530;2023-02-15T06:45:29;56.02;;;55.01;;
73132;SDS011;61320;52.008;4.530;2023-02-15T06:47:54;56.36;;;55.15;;
73132;SDS011;61320;52.008;4.530;2023-02-15T06:50:20;55.83;;;54.83;;
73132;SDS011;61320;52.008;4.530;2023-02-15T06:52:45;56.14;;;55.03;;
73132;SDS011;61320;52.008;4.530;2023-02-15T06:55:11;57.23;;;55.86;;
73132;SDS011;61320;52.008;4.530;2023-02-15T06:57:36;56.48;;;55.61;;
73132;SDS011;61320;52.008;4.530;2023-02-15T07:00:02;54.95;;;54.16;;
73132;SDS011;61320;52.008;4.530;2023-02-15T07:02:30;54.80;;;53.81;;
73132;SDS011;61320;52.008;4.530;2023-02-15T07:04:56;56.12;;;55.24;;
73132;SDS011;61320;52.008;4.530;2023-02-15T07:07:22;56.86;;;55.60;;
73132;SDS011;61320;52.008;4.530;2023-02-15T07:09:47;57.83;;;56.77;;
73132;SDS011;61320;52.008;4.530;2023-02-15T07:12:13;56.66;;;55.57;;
73132;SDS011;61320;52.008;4.530;2023-02-15T07:14:57;55.00;;;53.89;;
73132;SDS011;61320;52.008;4.530;2023-02-15T07:17:23;56.10;;;55.22;;
73132;SDS011;61320;52.008;4.530;2023-02-15T07:19:49;56.36;;;55.34;;
73132;SDS011;61320;52.008;4.530;2023-02-15T07:22:14;56.62;;;55.63;;
73132;SDS011;61320;52.008;4.530;2023-02-15T07:24:39;57.16;;;56.05;;
73132;SDS011;61320;52.008;4.530;2023-02-15T07:27:06;56.65;;;55.35;;
73132;SDS011;61320;52.008;4.530;2023-02-15T07:29:32;55.56;;;54.42;;
73132;SDS011;61320;52.008;4.530;2023-02-15T07:31:57;56.23;;;55.03;;
73132;SDS011;61320;52.008;4.530;2023-02-15T07:34:23;53.96;;;53.37;;
73132;SDS011;61320;52.008;4.530;2023-02-15T07:36:50;55.02;;;54.13;;
73132;SDS011;61320;52.008;4.530;2023-02-15T07:39:16;55.81;;;55.00;;
73132;SDS011;61320;52.008;4.530;2023-02-15T07:41:41;56.85;;;56.28;;
73132;SDS011;61320;52.008;4.530;2023-02-15T07:44:10;57.00;;;56.05;;
73132;SDS011;61320;52.008;4.530;2023-02-15T07:46:37;56.15;;;55.33;;
73132;SDS011;61320;52.008;4.530;2023-02-15T07:49:02;56.63;;;55.38;;
73132;SDS011;61320;52.008;4.530;2023-02-15T07:51:28;57.77;;;56.45;;
73132;SDS011;61320;52.008;4.530;2023-02-15T07:53:54;57.10;;;56.20;;
73132;SDS011;61320;52.008;4.530;2023-02-15T07:56:20;58.10;;;57.35;;
73132;SDS011;61320;52.008;4.530;2023-02-15T07:58:45;58.07;;;57.44;;
73132;SDS011;61320;52.008;4.530;2023-02-15T08:01:17;57.65;;;56.71;;
73132;SDS011;61320;52.008;4.530;2023-02-15T08:03:44;56.86;;;56.38;;
73132;SDS011;61320;52.008;4.530;2023-02-15T08:06:10;58.18;;;57.47;;
73132;SDS011;61320;52.008;4.530;2023-02-15T08:08:38;59.03;;;58.16;;
73132;SDS011;61320;52.008;4.530;2023-02-15T08:19:15;59.54;;;58.30;;
73132;SDS011;61320;52.008;4.530;2023-02-15T08:21:43;58.21;;;57.49;;
73132;SDS011;61320;52.008;4.530;2023-02-15T08:24:11;58.39;;;57.76;;
73132;SDS011;61320;52.008;4.530;2023-02-15T08:26:39;59.76;;;58.68;;
73132;SDS011;61320;52.008;4.530;2023-02-15T08:29:05;59.28;;;58.29;;
73132;SDS011;61320;52.008;4.530;2023-02-15T08:31:32;59.89;;;59.02;;
73132;SDS011;61320;52.008;4.530;2023-02-15T08:33:59;60.74;;;59.65;;
73132;SDS011;61320;52.008;4.530;2023-02-15T08:36:26;60.24;;;59.03;;
73132;SDS011;61320;52.008;4.530;2023-02-15T08:38:54;60.71;;;59.53;;
73132;SDS011;61320;52.008;4.530;2023-02-15T08:41:23;60.04;;;59.08;;
73132;SDS011;61320;52.008;4.530;2023-02-15T08:43:54;60.10;;;59.21;;
73132;SDS011;61320;52.008;4.530;2023-02-15T08:46:23;60.52;;;59.50;;
73132;SDS011;61320;52.008;4.530;2023-02-15T08:48:51;60.41;;;59.55;;
73132;SDS011;61320;52.008;4.530;2023-02-15T08:51:17;58.47;;;57.78;;
73132;SDS011;61320;52.008;4.530;2023-02-15T08:53:49;60.67;;;59.94;;
73132;SDS011;61320;52.008;4.530;2023-02-15T08:56:17;60.08;;;59.00;;
73132;SDS011;61320;52.008;4.530;2023-02-15T08:58:45;60.44;;;59.48;;
73132;SDS011;61320;52.008;4.530;2023-02-15T09:01:12;60.28;;;59.03;;
73132;SDS011;61320;52.008;4.530;2023-02-15T09:03:58;60.02;;;59.23;;
73132;SDS011;61320;52.008;4.530;2023-02-15T09:06:26;60.88;;;59.71;;
73132;SDS011;61320;52.008;4.530;2023-02-15T09:08:53;59.77;;;59.19;;
73132;SDS011;61320;52.008;4.530;2023-02-15T09:11:21;60.71;;;59.76;;
73132;SDS011;61320;52.008;4.530;2023-02-15T09:13:52;61.93;;;60.94;;
73132;SDS011;61320;52.008;4.530;2023-02-15T09:16:20;60.93;;;60.31;;
73132;SDS011;61320;52.008;4.530;2023-02-15T09:18:48;61.56;;;61.04;;
73132;SDS011;61320;52.008;4.530;2023-02-15T09:21:14;63.46;;;62.62;;
73132;SDS011;61320;52.008;4.530;2023-02-15T09:23:43;63.67;;;62.71;;
73132;SDS011;61320;52.008;4.530;2023-02-15T09:26:11;65.24;;;64.09;;
73132;SDS011;61320;52.008;4.530;2023-02-15T09:28:38;66.08;;;64.50;;
73132;SDS011;61320;52.008;4.530;2023-02-15T09:31:13;65.43;;;64.48;;
73132;SDS011;61320;52.008;4.530;2023-02-15T09:33:42;65.00;;;63.88;;
73132;SDS011;61320;52.008;4.530;2023-02-15T09:39:24;65.64;;;64.83;;
73132;SDS011;61320;52.008;4.530;2023-02-15T09:52:33;65.26;;;64.09;;
73132;SDS011;61320;52.008;4.530;2023-02-15T09:55:20;63.84;;;62.98;;
73132;SDS011;61320;52.008;4.530;2023-02-15T09:58:23;64.52;;;63.25;;
73132;SDS011;61320;52.008;4.530;2023-02-15T10:03:57;62.57;;;61.70;;
73132;SDS011;61320;52.008;4.530;2023-02-15T10:09:46;63.33;;;62.38;;
73132;SDS011;61320;52.008;4.530;2023-02-15T10:28:54;62.70;;;61.20;;
73132;SDS011;61320;52.008;4.530;2023-02-15T10:31:45;63.13;;;62.23;;
73132;SDS011;61320;52.008;4.530;2023-02-15T10:34:34;63.62;;;62.29;;
73132;SDS011;61320;52.008;4.530;2023-02-15T10:37:09;62.33;;;61.21;;
73132;SDS011;61320;52.008;4.530;2023-02-15T10:50:59;63.01;;;61.97;;
73132;SDS011;61320;52.008;4.530;2023-02-15T10:56:19;61.46;;;60.56;;
73132;SDS011;61320;52.008;4.530;2023-02-15T11:01:22;62.87;;;61.65;;
73132;SDS011;61320;52.008;4.530;2023-02-15T11:06:51;62.40;;;61.28;;
73132;SDS011;61320;52.008;4.530;2023-02-15T11:09:21;62.27;;;61.13;;
73132;SDS011;61320;52.008;4.530;2023-02-15T11:11:52;63.64;;;62.06;;
73132;SDS011;61320;52.008;4.530;2023-02-15T11:17:04;62.70;;;61.64;;
73132;SDS011;61320;52.008;4.530;2023-02-15T11:19:58;62.59;;;61.82;;
73132;SDS011;61320;52.008;4.530;2023-02-15T11:22:28;63.81;;;62.69;;
73132;SDS011;61320;52.008;4.530;2023-02-15T11:24:57;62.28;;;61.22;;
73132;SDS011;61320;52.008;4.530;2023-02-15T11:27:28;63.16;;;61.73;;
73132;SDS011;61320;52.008;4.530;2023-02-15T11:30:03;62.22;;;60.91;;
73132;SDS011;61320;52.008;4.530;2023-02-15T11:32:37;61.88;;;60.95;;
73132;SDS011;61320;52.008;4.530;2023-02-15T11:37:48;62.26;;;60.87;;
73132;SDS011;61320;52.008;4.530;2023-02-15T11:40:46;60.46;;;59.35;;
73132;SDS011;61320;52.008;4.530;2023-02-15T11:43:20;61.79;;;60.55;;
73132;SDS011;61320;52.008;4.530;2023-02-15T11:46:10;60.86;;;59.90;;
73132;SDS011;61320;52.008;4.530;2023-02-15T11:48:38;61.71;;;60.65;;
73132;SDS011;61320;52.008;4.530;2023-02-15T11:51:04;60.30;;;59.18;;
73132;SDS011;61320;52.008;4.530;2023-02-15T11:53:35;60.70;;;59.93;;
73132;SDS011;61320;52.008;4.530;2023-02-15T11:56:03;61.96;;;60.74;;
73132;SDS011;61320;52.008;4.530;2023-02-15T11:58:45;61.38;;;60.11;;
73132;SDS011;61320;52.008;4.530;2023-02-15T12:07:09;61.77;;;60.42;;
73132;SDS011;61320;52.008;4.530;2023-02-15T12:14:47;57.55;;;56.73;;
73132;SDS011;61320;52.008;4.530;2023-02-15T12:17:18;58.31;;;57.19;;
73132;SDS011;61320;52.008;4.530;2023-02-15T12:19:48;57.19;;;56.12;;
73132;SDS011;61320;52.008;4.530;2023-02-15T12:22:25;57.79;;;56.52;;
73132;SDS011;61320;52.008;4.530;2023-02-15T12:25:03;57.42;;;56.48;;
73132;SDS011;61320;52.008;4.530;2023-02-15T12:27:45;56.16;;;55.54;;
73132;SDS011;61320;52.008;4.530;2023-02-15T12:30:32;58.85;;;57.67;;
73132;SDS011;61320;52.008;4.530;2023-02-15T12:35:47;55.41;;;54.62;;
73132;SDS011;61320;52.008;4.530;2023-02-15T12:38:25;56.80;;;55.72;;
73132;SDS011;61320;52.008;4.530;2023-02-15T12:41:03;56.77;;;55.77;;
73132;SDS011;61320;52.008;4.530;2023-02-15T12:43:46;57.43;;;56.25;;
73132;SDS011;61320;52.008;4.530;2023-02-15T12:51:43;54.98;;;54.23;;
73132;SDS011;61320;52.008;4.530;2023-02-15T12:54:38;56.85;;;55.66;;
73132;SDS011;61320;52.008;4.530;2023-02-15T13:02:21;55.88;;;54.77;;
73132;SDS011;61320;52.008;4.530;2023-02-15T13:04:51;56.85;;;55.73;;
73132;SDS011;61320;52.008;4.530;2023-02-15T13:07:18;56.65;;;55.61;;
73132;SDS011;61320;52.008;4.530;2023-02-15T13:09:45;56.57;;;55.69;;
73132;SDS011;61320;52.008;4.530;2023-02-15T13:12:17;58.06;;;57.02;;
73132;SDS011;61320;52.008;4.530;2023-02-15T13:14:55;56.80;;;56.42;;
73132;SDS011;61320;52.008;4.530;2023-02-15T13:17:26;57.35;;;56.82;;
73132;SDS011;61320;52.008;4.530;2023-02-15T13:20:05;58.90;;;57.88;;
73132;SDS011;61320;52.008;4.530;2023-02-15T13:22:44;59.56;;;58.33;;
73132;SDS011;61320;52.008;4.530;2023-02-15T13:25:22;58.91;;;58.04;;
73132;SDS011;61320;52.008;4.530;2023-02-15T13:27:52;57.73;;;57.01;;
73132;SDS011;61320;52.008;4.530;2023-02-15T13:32:50;59.20;;;57.95;;
73132;SDS011;61320;52.008;4.530;2023-02-15T13:35:20;58.22;;;57.09;;
73132;SDS011;61320;52.008;4.530;2023-02-15T13:37:59;56.54;;;55.76;;
73132;SDS011;61320;52.008;4.530;2023-02-15T13:46:09;57.14;;;56.11;;
73132;SDS011;61320;52.008;4.530;2023-02-15T14:01:56;54.34;;;53.74;;
73132;SDS011;61320;52.008;4.530;2023-02-15T14:10:01;55.78;;;54.84;;
73132;SDS011;61320;52.008;4.530;2023-02-15T14:15:45;55.34;;;54.29;;
73132;SDS011;61320;52.008;4.530;2023-02-15T14:20:57;53.28;;;52.55;;
73132;SDS011;61320;52.008;4.530;2023-02-15T14:23:56;54.93;;;54.21;;
73132;SDS011;61320;52.008;4.530;2023-02-15T14:29:42;52.16;;;51.43;;
73132;SDS011;61320;52.008;4.530;2023-02-15T14:32:23;53.35;;;52.73;;
73132;SDS011;61320;52.008;4.530;2023-02-15T14:35:18;53.46;;;52.32;;
73132;SDS011;61320;52.008;4.530;2023-02-15T14:38:36;54.96;;;53.88;;
73132;SDS011;61320;52.008;4.530;2023-02-15T14:41:18;54.98;;;53.56;;
73132;SDS011;61320;52.008;4.530;2023-02-15T14:43:32;54.42;;;53.38;;
73132;SDS011;61320;52.008;4.530;2023-02-15T14:48:55;53.69;;;53.03;;
73132;SDS011;61320;52.008;4.530;2023-02-15T14:56:45;52.70;;;51.95;;
73132;SDS011;61320;52.008;4.530;2023-02-15T14:59:23;51.58;;;50.75;;
73132;SDS011;61320;52.008;4.530;2023-02-15T15:02:00;51.41;;;50.88;;
73132;SDS011;61320;52.008;4.530;2023-02-15T15:04:35;51.89;;;51.00;;
73132;SDS011;61320;52.008;4.530;2023-02-15T15:07:19;50.41;;;49.65;;
73132;SDS011;61320;52.008;4.530;2023-02-15T15:09:59;51.30;;;50.32;;
73132;SDS011;61320;52.008;4.530;2023-02-15T15:12:52;52.13;;;51.30;;
73132;SDS011;61320;52.008;4.530;2023-02-15T15:39:27;60.19;;;59.62;;
73132;SDS011;61320;52.008;4.530;2023-02-15T15:48:59;61.59;;;60.25;;
73132;SDS011;61320;52.008;4.530;2023-02-15T15:51:31;60.65;;;59.27;;
73132;SDS011;61320;52.008;4.530;2023-02-15T15:53:58;60.74;;;59.79;;
73132;SDS011;61320;52.008;4.530;2023-02-15T15:56:31;60.37;;;59.32;;
73132;SDS011;61320;52.008;4.530;2023-02-15T15:59:04;60.68;;;59.61;;
73132;SDS011;61320;52.008;4.530;2023-02-15T16:01:40;73.39;;;71.57;;
73132;SDS011;61320;52.008;4.530;2023-02-15T16:04:22;63.19;;;61.64;;
73132;SDS011;61320;52.008;4.530;2023-02-15T16:06:57;63.16;;;61.91;;
73132;SDS011;61320;52.008;4.530;2023-02-15T16:09:27;62.09;;;61.17;;
73132;SDS011;61320;52.008;4.530;2023-02-15T16:11:53;63.25;;;62.08;;
73132;SDS011;61320;52.008;4.530;2023-02-15T16:14:30;62.82;;;61.76;;
73132;SDS011;61320;52.008;4.530;2023-02-15T16:17:01;62.52;;;61.09;;
73132;SDS011;61320;52.008;4.530;2023-02-15T16:19:30;62.81;;;61.25;;
73132;SDS011;61320;52.008;4.530;2023-02-15T16:22:00;61.17;;;59.95;;
73132;SDS011;61320;52.008;4.530;2023-02-15T16:24:38;61.93;;;60.60;;
73132;SDS011;61320;52.008;4.530;2023-02-15T16:30:20;61.55;;;60.31;;
73132;SDS011;61320;52.008;4.530;2023-02-15T16:32:52;61.83;;;60.52;;
73132;SDS011;61320;52.008;4.530;2023-02-15T16:35:30;60.87;;;59.56;;
73132;SDS011;61320;52.008;4.530;2023-02-15T16:37:56;62.23;;;60.48;;
73132;SDS011;61320;52.008;4.530;2023-02-15T16:40:25;62.57;;;61.12;;
73132;SDS011;61320;52.008;4.530;2023-02-15T16:43:00;63.14;;;61.70;;
73132;SDS011;61320;52.008;4.530;2023-02-15T16:45:31;64.37;;;62.69;;
73132;SDS011;61320;52.008;4.530;2023-02-15T16:47:58;62.34;;;61.16;;
73132;SDS011;61320;52.008;4.530;2023-02-15T16:50:33;62.93;;;61.46;;
73132;SDS011;61320;52.008;4.530;2023-02-15T16:53:02;61.81;;;60.79;;
73132;SDS011;61320;52.008;4.530;2023-02-15T16:55:35;61.49;;;60.24;;
73132;SDS011;61320;52.008;4.530;2023-02-15T16:58:05;62.44;;;61.38;;
73132;SDS011;61320;52.008;4.530;2023-02-15T17:00:36;63.45;;;61.97;;
73132;SDS011;61320;52.008;4.530;2023-02-15T17:05:50;60.60;;;59.18;;
73132;SDS011;61320;52.008;4.530;2023-02-15T17:08:19;60.56;;;59.39;;
73132;SDS011;61320;52.008;4.530;2023-02-15T17:11:08;59.67;;;58.14;;
73132;SDS011;61320;52.008;4.530;2023-02-15T17:13:39;60.41;;;58.94;;
73132;SDS011;61320;52.008;4.530;2023-02-15T17:16:28;60.85;;;59.14;;
73132;SDS011;61320;52.008;4.530;2023-02-15T17:18:59;58.98;;;57.65;;
73132;SDS011;61320;52.008;4.530;2023-02-15T17:21:30;56.86;;;55.72;;
73132;SDS011;61320;52.008;4.530;2023-02-15T17:24:00;57.63;;;56.31;;
73132;SDS011;61320;52.008;4.530;2023-02-15T17:26:30;60.44;;;59.09;;
73132;SDS011;61320;52.008;4.530;2023-02-15T17:29:11;58.50;;;57.30;;
73132;SDS011;61320;52.008;4.530;2023-02-15T17:31:57;57.70;;;56.63;;
73132;SDS011;61320;52.008;4.530;2023-02-15T17:37:13;55.08;;;53.62;;
73132;SDS011;61320;52.008;4.530;2023-02-15T17:39:50;54.37;;;52.96;;
73132;SDS011;61320;52.008;4.530;2023-02-15T17:42:16;54.96;;;53.75;;
73132;SDS011;61320;52.008;4.530;2023-02-15T17:44:41;54.54;;;53.13;;
73132;SDS011;61320;52.008;4.530;2023-02-15T17:47:09;55.59;;;54.33;;
73132;SDS011;61320;52.008;4.530;2023-02-15T17:49:40;55.85;;;54.58;;
73132;SDS011;61320;52.008;4.530;2023-02-15T17:52:08;56.83;;;55.43;;
73132;SDS011;61320;52.008;4.530;2023-02-15T17:54:37;55.79;;;54.48;;
73132;SDS011;61320;52.008;4.530;2023-02-15T17:57:21;54.72;;;53.87;;
73132;SDS011;61320;52.008;4.530;2023-02-15T17:59:47;56.17;;;54.41;;
73132;SDS011;61320;52.008;4.530;2023-02-15T18:02:31;55.21;;;54.09;;
73132;SDS011;61320;52.008;4.530;2023-02-15T18:05:18;57.16;;;56.13;;
73132;SDS011;61320;52.008;4.530;2023-02-15T18:08:04;57.74;;;56.32;;
73132;SDS011;61320;52.008;4.530;2023-02-15T18:10:57;57.71;;;56.42;;
73132;SDS011;61320;52.008;4.530;2023-02-15T18:13:41;58.84;;;57.46;;
73132;SDS011;61320;52.008;4.530;2023-02-15T18:16:10;59.07;;;57.72;;
73132;SDS011;61320;52.008;4.530;2023-02-15T18:18:43;59.21;;;57.94;;